Holland, Nebraska
Current Conditions -  °F | °C
As of 11:54 PM on Tuesday 21 Oct 2014 (Local Time) from KLNK Reporting Station
Clear Clear  
Wind Chill: 16°   Ceiling: Unl
Heat Index: 16°   Visibility: 10mi
Dew Point:   Wind: 13mph
Humidity: 50%   Direction: 140°SE
Pressure: 30.05"   Gusts: NA
Location:  40.6166°N, 96.617°W
Report Text: KLNK 220454Z AUTO 14011KT 10SM CLR 16/06 A3005 RMK AO2 SLP169 T01610056
Loading
Personal Weather Stations






























Interactive Weather Map
Tropical Storm Tracking
New forecast layout! Learn more

10-Day Weather Forecast

Advertisements
Track Severe Weather on mobile